createdAt,value
2023-05-24T00:02:14.310Z,11.40
2023-05-24T00:04:43.479Z,10.60
2023-05-24T00:07:11.694Z,9.40
2023-05-24T00:09:42.720Z,9.00
2023-05-24T00:12:11.380Z,9.30
2023-05-24T00:14:39.267Z,8.50
2023-05-24T00:17:07.346Z,8.90
2023-05-24T00:19:38.432Z,8.00
2023-05-24T00:22:07.045Z,7.70
2023-05-24T00:24:34.833Z,7.10
2023-05-24T00:27:02.988Z,7.90
2023-05-24T00:29:32.385Z,7.50
2023-05-24T00:32:03.502Z,8.30
2023-05-24T00:34:47.301Z,7.80
2023-05-24T00:37:18.412Z,7.80
2023-05-24T00:39:52.306Z,7.70
2023-05-24T00:42:20.177Z,7.60
2023-05-24T00:44:55.512Z,7.80
2023-05-24T00:47:23.932Z,8.00
2023-05-24T00:49:55.111Z,8.10
2023-05-24T00:52:23.256Z,8.00
2023-05-24T00:54:51.262Z,8.80
2023-05-24T00:57:23.965Z,8.40
2023-05-24T00:59:52.976Z,8.80
2023-05-24T01:02:20.975Z,8.60
2023-05-24T01:04:49.592Z,8.30
2023-05-24T01:07:34.926Z,8.90
2023-05-24T01:10:21.887Z,8.70
2023-05-24T01:12:56.494Z,9.40
2023-05-24T01:15:28.028Z,8.80
2023-05-24T01:18:06.035Z,9.20
2023-05-24T01:20:35.040Z,9.20
2023-05-24T01:23:06.541Z,9.80
2023-05-24T01:25:39.028Z,9.90
2023-05-24T01:28:08.387Z,9.40
2023-05-24T01:30:45.534Z,8.90
2023-05-24T01:33:15.978Z,9.20
2023-05-24T01:35:43.927Z,9.30
2023-05-24T01:38:12.399Z,8.60
2023-05-24T01:40:46.448Z,8.70
2023-05-24T01:43:23.415Z,8.80
2023-05-24T01:45:58.243Z,9.40
2023-05-24T01:48:34.708Z,8.10
2023-05-24T01:51:05.830Z,8.00
2023-05-24T01:53:35.232Z,7.50
2023-05-24T01:56:11.339Z,7.60
2023-05-24T01:58:43.461Z,7.30
2023-05-24T02:01:14.446Z,6.50
2023-05-24T02:03:42.857Z,6.90
2023-05-24T02:06:10.946Z,6.60
2023-05-24T02:08:38.766Z,6.40
2023-05-24T02:11:11.694Z,6.00
2023-05-24T02:13:39.683Z,5.70
2023-05-24T02:16:07.654Z,5.60
2023-05-24T02:18:35.896Z,5.30
2023-05-24T02:21:04.172Z,5.00
2023-05-24T02:23:35.150Z,4.80
2023-05-24T02:26:03.215Z,5.20
2023-05-24T02:28:32.479Z,4.10
2023-05-24T02:31:02.914Z,4.20
2023-05-24T02:33:30.928Z,3.90
2023-05-24T02:35:58.928Z,4.60
2023-05-24T02:38:27.233Z,4.90
2023-05-24T02:40:55.136Z,4.10
2023-05-24T02:43:25.604Z,4.20
2023-05-24T02:45:53.834Z,3.80
2023-05-24T02:48:24.772Z,3.70
2023-05-24T02:50:56.034Z,3.80
2023-05-24T02:53:24.697Z,4.10
2023-05-24T02:55:52.768Z,3.90
2023-05-24T02:58:20.696Z,4.20
2023-05-24T03:00:51.670Z,3.80
2023-05-24T03:03:22.558Z,3.70
2023-05-24T03:05:51.920Z,3.60
2023-05-24T03:08:25.623Z,4.10
2023-05-24T03:10:53.864Z,3.90
2023-05-24T03:13:24.126Z,4.90
2023-05-24T03:15:52.017Z,4.10
2023-05-24T03:18:19.882Z,4.30
2023-05-24T03:20:47.868Z,4.60
2023-05-24T03:23:16.008Z,4.50
2023-05-24T03:25:46.410Z,5.40
2023-05-24T03:28:16.846Z,4.00
2023-05-24T03:30:44.974Z,4.60
2023-05-24T03:33:12.986Z,4.80
2023-05-24T03:35:41.090Z,4.40
2023-05-24T03:38:10.176Z,4.60
2023-05-24T03:40:38.580Z,4.30
2023-05-24T03:43:08.930Z,4.70
2023-05-24T03:45:39.611Z,4.20
2023-05-24T03:48:08.672Z,5.30
2023-05-24T03:50:37.142Z,5.20
2023-05-24T03:53:08.433Z,4.10
2023-05-24T03:55:36.668Z,4.40
2023-05-24T03:58:04.989Z,4.10
2023-05-24T04:00:32.754Z,3.90
2023-05-24T04:03:01.794Z,3.50
2023-05-24T04:05:33.477Z,3.60
2023-05-24T04:08:04.364Z,3.30
2023-05-24T04:10:32.563Z,3.30
2023-05-24T04:13:00.905Z,3.10
2023-05-24T04:15:31.946Z,3.10
2023-05-24T04:18:00.838Z,2.70
2023-05-24T04:20:29.440Z,3.10
2023-05-24T04:23:00.291Z,3.40
2023-05-24T04:25:29.690Z,2.70
2023-05-24T04:28:04.261Z,2.90
2023-05-24T04:30:36.857Z,2.30
2023-05-24T04:33:04.827Z,2.20
2023-05-24T04:35:40.929Z,1.80
2023-05-24T04:38:08.819Z,2.10
2023-05-24T04:40:37.748Z,2.50
2023-05-24T04:43:25.764Z,2.10
2023-05-24T04:45:57.112Z,1.40
2023-05-24T04:48:28.421Z,1.50
2023-05-24T04:51:00.821Z,1.60
2023-05-24T04:53:28.803Z,1.00
2023-05-24T04:55:56.898Z,1.40
2023-05-24T04:58:24.817Z,1.30
2023-05-24T05:00:52.777Z,1.00
2023-05-24T05:03:21.161Z,1.00
2023-05-24T05:05:49.176Z,0.80
2023-05-24T05:08:24.501Z,1.50
2023-05-24T05:10:53.016Z,0.80
2023-05-24T05:13:23.668Z,1.30
2023-05-24T05:15:57.286Z,0.90
2023-05-24T05:18:25.866Z,0.90
2023-05-24T05:20:54.346Z,0.80
2023-05-24T05:23:22.393Z,1.00
2023-05-24T05:25:50.322Z,0.70
2023-05-24T05:28:18.171Z,0.80
2023-05-24T05:30:46.173Z,0.80
2023-05-24T05:33:14.078Z,0.90
2023-05-24T05:35:42.177Z,0.80
2023-05-24T05:38:10.189Z,0.90
2023-05-24T05:40:38.000Z,1.10
2023-05-24T05:43:05.853Z,1.00
2023-05-24T05:45:34.565Z,1.20
2023-05-24T05:48:02.485Z,1.80
2023-05-24T05:50:30.352Z,1.40
2023-05-24T05:52:58.220Z,2.00
2023-05-24T05:55:26.185Z,1.00
2023-05-24T05:57:54.263Z,0.70
2023-05-24T06:00:25.402Z,0.80
2023-05-24T06:02:53.415Z,4.50
2023-05-24T06:05:21.838Z,4.80
2023-05-24T06:07:50.042Z,2.60
2023-05-24T06:10:17.927Z,3.70
2023-05-24T06:12:45.860Z,1.40
2023-05-24T06:15:14.235Z,4.50
2023-05-24T06:17:43.863Z,2.30
2023-05-24T06:20:15.680Z,5.00
2023-05-24T06:22:51.295Z,4.60
2023-05-24T06:25:20.851Z,4.00
2023-05-24T06:27:49.013Z,1.70
2023-05-24T06:30:17.091Z,1.90
2023-05-24T06:32:45.051Z,1.30
2023-05-24T06:35:12.957Z,1.30
2023-05-24T06:37:40.931Z,1.00
2023-05-24T06:40:11.638Z,1.20
2023-05-24T06:42:39.714Z,1.20
2023-05-24T06:45:08.659Z,1.00
2023-05-24T06:47:37.235Z,1.50
2023-05-24T06:50:05.922Z,1.60
2023-05-24T06:52:34.289Z,1.70
2023-05-24T06:55:02.430Z,1.80
2023-05-24T06:57:30.268Z,2.00
2023-05-24T06:59:58.482Z,2.10
2023-05-24T07:02:32.306Z,2.40
2023-05-24T07:05:03.646Z,2.30
2023-05-24T07:07:32.375Z,2.10
2023-05-24T07:10:06.522Z,3.10
2023-05-24T07:12:35.279Z,2.80
2023-05-24T07:15:03.921Z,2.70
2023-05-24T07:17:33.541Z,3.10
2023-05-24T07:20:02.352Z,3.20
2023-05-24T07:22:36.581Z,3.20
2023-05-24T07:25:05.640Z,2.90
2023-05-24T07:27:37.308Z,2.90
2023-05-24T07:30:16.348Z,3.00
2023-05-24T07:32:53.010Z,3.00
2023-05-24T07:35:23.285Z,3.20
2023-05-24T07:37:55.244Z,3.70
2023-05-24T07:40:26.756Z,3.30
2023-05-24T07:42:54.730Z,3.10
2023-05-24T07:45:23.302Z,3.60
2023-05-24T07:47:53.307Z,3.50
2023-05-24T07:50:24.321Z,3.50
2023-05-24T07:52:52.683Z,3.50
2023-05-24T07:55:20.722Z,2.90
2023-05-24T07:58:02.784Z,3.80
2023-05-24T08:00:30.853Z,3.50
2023-05-24T08:02:59.067Z,3.00
2023-05-24T08:05:27.237Z,4.30
2023-05-24T08:07:55.597Z,4.20
2023-05-24T08:10:26.670Z,3.80
2023-05-24T08:12:56.395Z,3.90
2023-05-24T08:15:25.108Z,3.90
2023-05-24T08:17:53.268Z,4.80
2023-05-24T08:20:21.893Z,3.40
2023-05-24T08:22:49.949Z,3.80
2023-05-24T08:25:18.172Z,4.30
2023-05-24T08:27:47.241Z,4.10
2023-05-24T08:30:15.859Z,4.10
2023-05-24T08:32:44.140Z,5.00
2023-05-24T08:35:20.226Z,4.40
2023-05-24T08:37:50.491Z,4.00
2023-05-24T08:40:18.885Z,4.40
2023-05-24T08:42:47.817Z,4.20
2023-05-24T08:45:16.359Z,4.50
2023-05-24T08:47:45.181Z,4.00
2023-05-24T08:50:14.123Z,4.50
2023-05-24T08:52:52.239Z,4.40
2023-05-24T08:55:20.611Z,4.30
2023-05-24T08:57:48.883Z,4.40
2023-05-24T09:00:17.311Z,4.60
2023-05-24T09:02:46.256Z,4.90
2023-05-24T09:05:21.598Z,4.60
2023-05-24T09:07:59.374Z,4.30
2023-05-24T09:10:49.197Z,3.80
2023-05-24T09:13:21.116Z,5.40
2023-05-24T09:15:49.417Z,5.00
2023-05-24T09:18:17.580Z,4.80
2023-05-24T09:21:00.177Z,4.70
2023-05-24T09:23:28.811Z,4.70
2023-05-24T09:25:57.642Z,4.50
2023-05-24T09:28:26.250Z,4.80
2023-05-24T09:31:04.565Z,5.10
2023-05-24T09:33:34.622Z,4.60
2023-05-24T09:36:04.846Z,4.80
2023-05-24T09:38:33.852Z,4.40
2023-05-24T09:41:08.734Z,4.60
2023-05-24T09:43:47.676Z,5.00
2023-05-24T09:46:22.809Z,4.80
2023-05-24T09:48:58.063Z,5.50
2023-05-24T09:51:27.219Z,5.00
2023-05-24T09:54:03.805Z,4.50
2023-05-24T09:56:33.601Z,4.70
2023-05-24T09:59:08.613Z,4.80
2023-05-24T10:01:40.440Z,4.80
2023-05-24T10:04:10.262Z,4.90
2023-05-24T10:06:39.067Z,4.60
2023-05-24T10:09:08.063Z,4.50
2023-05-24T10:11:40.093Z,4.50
2023-05-24T10:14:09.484Z,4.70
2023-05-24T10:16:38.474Z,5.20
2023-05-24T10:19:07.472Z,4.70
2023-05-24T10:21:37.789Z,5.10
2023-05-24T10:24:08.290Z,5.20
2023-05-24T10:26:38.908Z,5.10
2023-05-24T10:29:09.821Z,5.30
2023-05-24T10:31:39.617Z,5.00
2023-05-24T10:34:09.233Z,4.40
2023-05-24T10:36:41.311Z,5.40
2023-05-24T10:39:11.369Z,5.40
2023-05-24T10:41:40.939Z,5.30
2023-05-24T10:44:13.560Z,5.10
2023-05-24T10:46:59.934Z,5.90
2023-05-24T10:49:27.907Z,5.70
2023-05-24T10:52:21.958Z,4.90
2023-05-24T10:55:05.736Z,6.20
2023-05-24T10:57:34.287Z,5.70
2023-05-24T11:03:01.504Z,5.60
2023-05-24T11:05:49.935Z,5.50
2023-05-24T11:08:23.994Z,5.40
2023-05-24T11:11:24.596Z,6.00
2023-05-24T11:13:58.888Z,5.60
2023-05-24T11:16:35.436Z,5.80
2023-05-24T11:19:21.119Z,6.50
2023-05-24T11:21:50.032Z,6.10
2023-05-24T11:24:18.752Z,5.20
2023-05-24T11:26:47.080Z,5.30
2023-05-24T11:29:22.736Z,6.10
2023-05-24T11:31:57.703Z,5.80
2023-05-24T11:34:27.469Z,5.90
2023-05-24T11:36:55.747Z,6.30
2023-05-24T11:39:33.719Z,5.60
2023-05-24T11:42:04.056Z,5.90
2023-05-24T11:44:32.654Z,6.10
2023-05-24T11:47:05.043Z,5.40
2023-05-24T11:49:33.090Z,5.20
2023-05-24T11:52:01.848Z,5.70
2023-05-24T11:54:31.862Z,5.10
2023-05-24T11:56:59.808Z,5.60
2023-05-24T11:59:28.425Z,5.50
2023-05-24T12:02:00.668Z,5.50
2023-05-24T12:04:29.608Z,5.60
2023-05-24T12:06:58.187Z,5.00
2023-05-24T12:09:26.670Z,4.90
2023-05-24T12:11:55.087Z,5.20
2023-05-24T12:14:24.507Z,6.00
2023-05-24T12:16:54.459Z,5.20
2023-05-24T12:19:33.134Z,5.00
2023-05-24T12:22:05.331Z,4.40
2023-05-24T12:24:33.671Z,5.00
2023-05-24T12:27:08.418Z,5.20
2023-05-24T12:29:41.573Z,4.90
2023-05-24T12:32:15.090Z,5.60
2023-05-24T12:34:44.494Z,5.70
2023-05-24T12:37:13.660Z,6.00
2023-05-24T12:39:43.924Z,5.90
2023-05-24T12:42:16.396Z,5.30
2023-05-24T12:44:45.698Z,5.20
2023-05-24T12:47:13.933Z,4.80
2023-05-24T12:49:42.314Z,5.30
2023-05-24T12:52:10.221Z,5.60
2023-05-24T12:54:38.350Z,5.10
2023-05-24T12:57:06.433Z,6.40
2023-05-24T12:59:35.128Z,5.80
2023-05-24T13:02:04.337Z,5.90
2023-05-24T13:04:33.999Z,5.30
2023-05-24T13:07:03.201Z,5.40
2023-05-24T13:09:31.175Z,5.40
2023-05-24T13:11:59.020Z,5.20
2023-05-24T13:14:27.473Z,5.10
2023-05-24T13:16:55.777Z,5.60
2023-05-24T13:19:23.906Z,5.10
2023-05-24T13:21:52.559Z,4.80
2023-05-24T13:24:20.551Z,5.00
2023-05-24T13:26:50.003Z,5.20
2023-05-24T13:31:56.555Z,4.60
2023-05-24T13:34:27.701Z,5.00
2023-05-24T13:36:56.297Z,4.80
2023-05-24T13:39:25.046Z,4.90
2023-05-24T13:41:53.385Z,4.90
2023-05-24T13:44:22.152Z,5.00
2023-05-24T13:46:50.631Z,5.40
2023-05-24T13:49:19.489Z,4.40
2023-05-24T13:51:47.404Z,5.30
2023-05-24T13:54:16.804Z,4.80
2023-05-24T13:56:45.714Z,4.70
2023-05-24T13:59:13.859Z,4.90
2023-05-24T14:01:41.908Z,5.30
2023-05-24T14:04:09.858Z,4.80
2023-05-24T14:06:44.013Z,4.70
2023-05-24T14:09:15.719Z,5.40
2023-05-24T14:11:45.584Z,5.20
2023-05-24T14:16:51.802Z,5.90
2023-05-24T14:19:19.981Z,6.00
2023-05-24T14:21:48.501Z,7.50
2023-05-24T14:24:17.017Z,5.50
2023-05-24T14:26:47.545Z,5.30
2023-05-24T14:29:15.924Z,5.80
2023-05-24T14:31:44.199Z,6.00
2023-05-24T14:34:16.925Z,5.70
2023-05-24T14:36:46.609Z,6.30
2023-05-24T14:39:14.475Z,6.00
2023-05-24T14:41:42.508Z,6.30
2023-05-24T14:44:10.491Z,5.80
2023-05-24T14:46:38.375Z,6.10
2023-05-24T14:49:06.504Z,5.90
2023-05-24T14:51:34.374Z,5.90
2023-05-24T14:54:03.218Z,5.20
2023-05-24T14:56:31.709Z,6.90
2023-05-24T14:58:59.631Z,6.60
2023-05-24T15:01:27.535Z,7.30
2023-05-24T15:03:55.607Z,11.90
2023-05-24T15:06:23.882Z,11.30
2023-05-24T15:08:52.444Z,6.90
2023-05-24T15:11:20.358Z,6.70
2023-05-24T15:13:48.400Z,6.90
2023-05-24T15:16:16.306Z,6.10
2023-05-24T15:18:45.265Z,5.40
2023-05-24T15:21:13.308Z,6.10
2023-05-24T15:23:50.701Z,6.40
2023-05-24T15:26:19.016Z,5.90
2023-05-24T15:28:47.281Z,6.60
2023-05-24T15:31:15.583Z,6.10
2023-05-24T15:33:43.656Z,6.30
2023-05-24T15:36:14.404Z,6.20
2023-05-24T15:38:43.177Z,6.40
2023-05-24T15:41:19.011Z,7.40
2023-05-24T15:43:46.992Z,6.60
2023-05-24T15:46:18.788Z,5.40
2023-05-24T15:48:49.634Z,5.80
2023-05-24T15:53:52.593Z,6.40
2023-05-24T15:56:21.643Z,5.60
2023-05-24T15:58:49.455Z,6.90
2023-05-24T16:01:17.460Z,6.70
2023-05-24T16:03:46.213Z,6.10
2023-05-24T16:06:14.132Z,6.30
2023-05-24T16:08:42.044Z,6.10
2023-05-24T16:11:10.193Z,6.40
2023-05-24T16:13:38.656Z,7.90
2023-05-24T16:16:06.662Z,6.60
2023-05-24T16:18:37.061Z,6.50
2023-05-24T16:21:05.142Z,6.70
2023-05-24T16:23:33.135Z,6.90
2023-05-24T16:26:01.317Z,6.80
2023-05-24T16:28:32.441Z,6.10
2023-05-24T16:31:03.216Z,7.00
2023-05-24T16:33:35.151Z,5.90
2023-05-24T16:36:05.164Z,6.50
2023-05-24T16:38:33.365Z,7.90
2023-05-24T16:41:01.287Z,7.20
2023-05-24T16:43:29.345Z,7.90
2023-05-24T16:45:57.160Z,6.60
2023-05-24T16:48:28.813Z,7.40
2023-05-24T16:50:57.292Z,6.90
2023-05-24T16:53:26.860Z,6.40
2023-05-24T16:55:55.942Z,6.50
2023-05-24T16:58:24.674Z,6.20
2023-05-24T17:00:54.522Z,6.20
2023-05-24T17:03:28.081Z,7.50
2023-05-24T17:06:02.014Z,7.30
2023-05-24T17:08:36.658Z,7.70
2023-05-24T17:11:05.627Z,7.10
2023-05-24T17:13:34.184Z,7.00
2023-05-24T17:16:08.807Z,6.20
2023-05-24T17:18:37.867Z,6.30
2023-05-24T17:21:12.136Z,6.40
2023-05-24T17:23:41.689Z,6.80
2023-05-24T17:26:09.796Z,6.50
2023-05-24T17:28:37.660Z,6.70
2023-05-24T17:31:07.666Z,6.40
2023-05-24T17:33:35.650Z,6.30
2023-05-24T17:36:06.747Z,6.30
2023-05-24T17:38:37.494Z,5.60
2023-05-24T17:41:14.966Z,6.00
2023-05-24T17:43:43.244Z,5.60
2023-05-24T17:46:14.690Z,5.60
2023-05-24T17:48:43.705Z,4.90
2023-05-24T17:51:15.093Z,5.70
2023-05-24T17:53:43.728Z,5.00
2023-05-24T17:56:12.487Z,5.10
2023-05-24T17:58:41.213Z,5.40
2023-05-24T18:01:11.915Z,5.30
2023-05-24T18:03:41.080Z,5.30
2023-05-24T18:06:09.935Z,5.80
2023-05-24T18:08:41.033Z,4.60
2023-05-24T18:11:10.565Z,5.90
2023-05-24T18:13:39.396Z,6.00
2023-05-24T18:16:11.707Z,6.20
2023-05-24T18:18:39.943Z,5.10
2023-05-24T18:21:09.888Z,5.70
2023-05-24T18:23:38.358Z,5.20
2023-05-24T18:26:08.302Z,6.70
2023-05-24T18:28:37.699Z,6.30
2023-05-24T18:31:10.795Z,5.70
2023-05-24T18:33:39.391Z,6.90
2023-05-24T18:36:08.328Z,4.80
2023-05-24T18:38:36.678Z,5.20
2023-05-24T18:41:06.493Z,5.90
2023-05-24T18:43:35.205Z,5.20
2023-05-24T18:46:06.706Z,4.80
2023-05-24T18:48:35.257Z,5.30
2023-05-24T18:51:06.799Z,5.00
2023-05-24T18:53:36.129Z,5.60
2023-05-24T18:56:04.605Z,5.80
2023-05-24T18:58:33.060Z,4.60
2023-05-24T19:01:01.277Z,5.30
2023-05-24T19:03:29.775Z,5.40
2023-05-24T19:05:58.682Z,5.10
2023-05-24T19:08:27.255Z,5.10
2023-05-24T19:10:55.440Z,5.30
2023-05-24T19:13:28.150Z,4.80
2023-05-24T19:15:56.733Z,4.50
2023-05-24T19:18:25.299Z,5.00
2023-05-24T19:20:54.110Z,4.90
2023-05-24T19:23:22.721Z,5.90
2023-05-24T19:25:56.633Z,5.60
2023-05-24T19:28:35.032Z,6.10
2023-05-24T19:31:03.903Z,5.00
2023-05-24T19:33:32.653Z,4.50
2023-05-24T19:36:01.434Z,4.80
2023-05-24T19:38:31.173Z,4.80
2023-05-24T19:40:59.523Z,5.00
2023-05-24T19:43:27.811Z,4.20
2023-05-24T19:45:59.343Z,4.20
2023-05-24T19:48:28.939Z,5.10
2023-05-24T19:50:57.054Z,4.40
2023-05-24T19:53:25.299Z,4.90
2023-05-24T19:55:53.728Z,4.90
2023-05-24T19:58:26.368Z,5.00
2023-05-24T20:00:54.873Z,4.90
2023-05-24T20:03:26.497Z,4.30
2023-05-24T20:05:54.818Z,4.90
2023-05-24T20:08:26.728Z,5.10
2023-05-24T20:10:57.128Z,5.00
2023-05-24T20:13:27.952Z,5.20
2023-05-24T20:15:59.202Z,4.60
2023-05-24T20:18:30.784Z,7.20
2023-05-24T20:21:01.836Z,5.50
2023-05-24T20:23:31.042Z,5.10
2023-05-24T20:25:59.657Z,4.90
2023-05-24T20:28:31.983Z,5.10
2023-05-24T20:31:01.548Z,4.70
2023-05-24T20:33:29.976Z,5.50
2023-05-24T20:36:08.439Z,5.60
2023-05-24T20:38:37.954Z,5.10
2023-05-24T20:41:06.592Z,4.50
2023-05-24T20:43:35.849Z,5.80
2023-05-24T20:46:05.475Z,6.00
2023-05-24T20:48:36.200Z,5.40
2023-05-24T20:51:08.577Z,5.30
2023-05-24T20:53:44.784Z,5.70
2023-05-24T20:56:13.470Z,5.50
2023-05-24T20:58:41.727Z,4.70
2023-05-24T21:01:16.993Z,5.60
2023-05-24T21:03:54.909Z,5.70
2023-05-24T21:06:23.839Z,5.40
2023-05-24T21:08:52.062Z,5.70
2023-05-24T21:11:23.662Z,5.30
2023-05-24T21:13:52.508Z,5.50
2023-05-24T21:16:21.123Z,5.30
2023-05-24T21:18:50.933Z,5.20
2023-05-24T21:21:24.094Z,4.60
2023-05-24T21:24:24.992Z,5.40
2023-05-24T21:27:10.036Z,4.90
2023-05-24T21:29:48.916Z,4.70
2023-05-24T21:32:19.560Z,4.90
2023-05-24T21:34:47.708Z,5.10
2023-05-24T21:37:16.592Z,5.00
2023-05-24T21:39:44.789Z,4.70
2023-05-24T21:42:15.562Z,4.70
2023-05-24T21:44:47.243Z,4.50
2023-05-24T21:47:16.021Z,4.90
2023-05-24T21:49:44.870Z,4.30
2023-05-24T21:52:13.581Z,4.50
2023-05-24T21:54:41.401Z,4.20
2023-05-24T21:57:09.345Z,4.00
2023-05-24T21:59:40.852Z,4.10
2023-05-24T22:02:09.246Z,4.50
2023-05-24T22:04:37.432Z,4.00
2023-05-24T22:07:08.851Z,4.30
2023-05-24T22:09:36.903Z,4.40
2023-05-24T22:12:05.195Z,5.30
2023-05-24T22:14:33.043Z,5.20
2023-05-24T22:17:01.154Z,4.90
2023-05-24T22:19:40.067Z,5.20
2023-05-24T22:22:08.909Z,5.40
2023-05-24T22:24:36.914Z,5.40
2023-05-24T22:27:05.113Z,5.20
2023-05-24T22:29:33.090Z,5.60
2023-05-24T22:32:01.425Z,5.70
2023-05-24T22:34:29.804Z,6.10
2023-05-24T22:36:58.299Z,5.70
2023-05-24T22:39:26.510Z,5.10
2023-05-24T22:41:54.441Z,5.90
2023-05-24T22:44:22.403Z,5.20
2023-05-24T22:46:50.519Z,5.60
2023-05-24T22:49:19.525Z,5.70
2023-05-24T22:51:48.879Z,6.00
2023-05-24T22:54:17.181Z,5.20
2023-05-24T22:56:46.345Z,6.10
2023-05-24T22:59:14.720Z,5.60
2023-05-24T23:01:44.864Z,5.10
2023-05-24T23:04:21.356Z,6.10
2023-05-24T23:06:53.123Z,5.00
2023-05-24T23:09:34.918Z,6.00
2023-05-24T23:12:07.454Z,5.50
2023-05-24T23:14:39.926Z,5.70
2023-05-24T23:17:10.480Z,5.30
2023-05-24T23:19:42.526Z,5.80
2023-05-24T23:22:12.073Z,5.90
2023-05-24T23:24:42.284Z,6.30
2023-05-24T23:27:10.940Z,5.30
2023-05-24T23:29:41.862Z,5.80
2023-05-24T23:32:10.024Z,5.70
2023-05-24T23:34:38.309Z,6.30
2023-05-24T23:37:06.174Z,5.70
2023-05-24T23:39:34.787Z,6.20
2023-05-24T23:42:06.655Z,6.60
2023-05-24T23:44:37.703Z,8.20
2023-05-24T23:47:06.106Z,6.90
2023-05-24T23:49:34.860Z,6.70
2023-05-24T23:52:04.114Z,6.10
2023-05-24T23:54:32.016Z,6.20
2023-05-24T23:56:59.992Z,5.10
2023-05-24T23:59:28.012Z,6.20
